sensor_id;sensor_type;location;lat;lon;timestamp;pressure;altitude;pressure_sealevel;temperature;humidity
6500;BME280;3283;52.330;9.772;2022-08-03T00:01:45;100813.44;;;21.20;87.43
6500;BME280;3283;52.330;9.772;2022-08-03T00:04:10;100811.09;;;21.13;87.92
6500;BME280;3283;52.330;9.772;2022-08-03T00:06:36;100804.88;;;21.13;87.57
6500;BME280;3283;52.330;9.772;2022-08-03T00:09:06;100809.28;;;21.14;88.29
6500;BME280;3283;52.330;9.772;2022-08-03T00:11:32;100802.38;;;21.10;88.49
6500;BME280;3283;52.330;9.772;2022-08-03T00:13:58;100810.41;;;21.10;88.87
6500;BME280;3283;52.330;9.772;2022-08-03T00:16:23;100804.59;;;21.02;88.77
6500;BME280;3283;52.330;9.772;2022-08-03T00:18:50;100806.66;;;20.97;89.31
6500;BME280;3283;52.330;9.772;2022-08-03T00:21:16;100797.84;;;20.95;89.34
6500;BME280;3283;52.330;9.772;2022-08-03T00:23:41;100803.03;;;20.98;89.30
6500;BME280;3283;52.330;9.772;2022-08-03T00:26:07;100798.94;;;20.91;89.08
6500;BME280;3283;52.330;9.772;2022-08-03T00:28:32;100799.34;;;20.83;90.16
6500;BME280;3283;52.330;9.772;2022-08-03T00:30:58;100795.66;;;20.85;89.55
6500;BME280;3283;52.330;9.772;2022-08-03T00:33:24;100794.72;;;20.87;89.35
6500;BME280;3283;52.330;9.772;2022-08-03T00:35:50;100795.59;;;20.87;89.67
6500;BME280;3283;52.330;9.772;2022-08-03T00:38:16;100805.56;;;20.83;90.03
6500;BME280;3283;52.330;9.772;2022-08-03T00:40:42;100789.84;;;20.77;89.55
6500;BME280;3283;52.330;9.772;2022-08-03T00:43:07;100793.47;;;20.76;90.40
6500;BME280;3283;52.330;9.772;2022-08-03T00:45:36;100797.09;;;20.75;90.24
6500;BME280;3283;52.330;9.772;2022-08-03T00:48:04;100788.28;;;20.73;90.04
6500;BME280;3283;52.330;9.772;2022-08-03T00:50:32;100786.63;;;20.71;90.09
6500;BME280;3283;52.330;9.772;2022-08-03T00:53:00;100792.84;;;20.71;90.64
6500;BME280;3283;52.330;9.772;2022-08-03T00:55:27;100779.47;;;20.54;91.52
6500;BME280;3283;52.330;9.772;2022-08-03T00:57:54;100787.34;;;20.57;91.32
6500;BME280;3283;52.330;9.772;2022-08-03T01:00:24;100787.19;;;20.60;90.91
6500;BME280;3283;52.330;9.772;2022-08-03T01:02:50;100786.41;;;20.58;90.95
6500;BME280;3283;52.330;9.772;2022-08-03T01:05:17;100788.28;;;20.56;90.53
6500;BME280;3283;52.330;9.772;2022-08-03T01:08:01;100785.78;;;20.53;90.95
6500;BME280;3283;52.330;9.772;2022-08-03T01:10:40;100784.84;;;20.54;91.21
6500;BME280;3283;52.330;9.772;2022-08-03T01:16:05;100784.38;;;20.46;92.12
6500;BME280;3283;52.330;9.772;2022-08-03T01:18:59;100782.91;;;20.39;91.96
6500;BME280;3283;52.330;9.772;2022-08-03T01:21:31;100788.56;;;20.33;91.94
6500;BME280;3283;52.330;9.772;2022-08-03T01:24:21;100785.81;;;20.34;91.53
6500;BME280;3283;52.330;9.772;2022-08-03T01:27:08;100776.28;;;20.28;92.08
6500;BME280;3283;52.330;9.772;2022-08-03T01:29:38;100780.06;;;20.24;92.46
6500;BME280;3283;52.330;9.772;2022-08-03T01:32:12;100787.28;;;20.22;92.00
6500;BME280;3283;52.330;9.772;2022-08-03T01:34:44;100784.63;;;20.22;92.07
6500;BME280;3283;52.330;9.772;2022-08-03T01:37:11;100776.69;;;20.21;91.65
6500;BME280;3283;52.330;9.772;2022-08-03T01:39:41;100781.16;;;20.20;91.51
6500;BME280;3283;52.330;9.772;2022-08-03T01:42:09;100778.50;;;20.20;91.46
6500;BME280;3283;52.330;9.772;2022-08-03T01:44:40;100774.88;;;20.21;91.35
6500;BME280;3283;52.330;9.772;2022-08-03T01:47:08;100781.25;;;20.19;91.44
6500;BME280;3283;52.330;9.772;2022-08-03T01:49:42;100773.44;;;20.14;91.77
6500;BME280;3283;52.330;9.772;2022-08-03T01:52:09;100779.09;;;20.08;92.61
6500;BME280;3283;52.330;9.772;2022-08-03T01:54:41;100777.38;;;20.07;92.60
6500;BME280;3283;52.330;9.772;2022-08-03T01:57:08;100778.31;;;20.06;92.55
6500;BME280;3283;52.330;9.772;2022-08-03T01:59:35;100780.97;;;20.06;92.43
6500;BME280;3283;52.330;9.772;2022-08-03T02:02:03;100779.44;;;20.02;92.90
6500;BME280;3283;52.330;9.772;2022-08-03T02:04:29;100784.91;;;19.99;92.77
6500;BME280;3283;52.330;9.772;2022-08-03T02:06:56;100785.19;;;19.93;92.90
6500;BME280;3283;52.330;9.772;2022-08-03T02:09:23;100781.19;;;19.84;93.68
6500;BME280;3283;52.330;9.772;2022-08-03T02:11:50;100783.19;;;19.79;94.00
6500;BME280;3283;52.330;9.772;2022-08-03T02:14:18;100778.88;;;19.77;94.05
6500;BME280;3283;52.330;9.772;2022-08-03T02:16:44;100771.38;;;19.66;94.16
6500;BME280;3283;52.330;9.772;2022-08-03T02:19:11;100789.56;;;19.77;94.03
6500;BME280;3283;52.330;9.772;2022-08-03T02:21:37;100783.72;;;19.68;94.61
6500;BME280;3283;52.330;9.772;2022-08-03T02:24:04;100783.00;;;19.65;94.60
6500;BME280;3283;52.330;9.772;2022-08-03T02:26:31;100777.59;;;19.66;94.33
6500;BME280;3283;52.330;9.772;2022-08-03T02:29:02;100780.31;;;19.65;94.43
6500;BME280;3283;52.330;9.772;2022-08-03T02:31:32;100772.56;;;19.60;95.03
6500;BME280;3283;52.330;9.772;2022-08-03T02:34:02;100767.06;;;19.63;94.37
6500;BME280;3283;52.330;9.772;2022-08-03T02:36:31;100759.06;;;19.63;94.17
6500;BME280;3283;52.330;9.772;2022-08-03T02:39:00;100774.13;;;19.64;93.86
6500;BME280;3283;52.330;9.772;2022-08-03T02:41:30;100766.19;;;19.63;93.56
6500;BME280;3283;52.330;9.772;2022-08-03T02:43:59;100769.06;;;19.58;94.05
6500;BME280;3283;52.330;9.772;2022-08-03T02:46:31;100769.94;;;19.59;93.91
6500;BME280;3283;52.330;9.772;2022-08-03T02:48:59;100760.34;;;19.55;93.79
6500;BME280;3283;52.330;9.772;2022-08-03T02:51:29;100768.47;;;19.52;94.21
6500;BME280;3283;52.330;9.772;2022-08-03T02:53:56;100763.88;;;19.55;93.94
6500;BME280;3283;52.330;9.772;2022-08-03T02:56:24;100768.53;;;19.50;94.02
6500;BME280;3283;52.330;9.772;2022-08-03T02:58:50;100758.53;;;19.55;93.59
6500;BME280;3283;52.330;9.772;2022-08-03T03:01:19;100764.16;;;19.49;93.85
6500;BME280;3283;52.330;9.772;2022-08-03T03:03:46;100749.16;;;19.46;94.05
6500;BME280;3283;52.330;9.772;2022-08-03T03:06:16;100757.88;;;19.50;93.82
6500;BME280;3283;52.330;9.772;2022-08-03T03:08:44;100761.75;;;19.43;93.91
6500;BME280;3283;52.330;9.772;2022-08-03T03:11:10;100758.44;;;19.38;94.49
6500;BME280;3283;52.330;9.772;2022-08-03T03:13:38;100759.38;;;19.37;94.48
6500;BME280;3283;52.330;9.772;2022-08-03T03:16:07;100764.81;;;19.35;94.16
6500;BME280;3283;52.330;9.772;2022-08-03T03:18:35;100761.44;;;19.32;94.40
6500;BME280;3283;52.330;9.772;2022-08-03T03:21:03;100760.69;;;19.28;94.53
6500;BME280;3283;52.330;9.772;2022-08-03T03:23:29;100755.34;;;19.28;94.76
6500;BME280;3283;52.330;9.772;2022-08-03T03:25:56;100764.38;;;19.26;94.92
6500;BME280;3283;52.330;9.772;2022-08-03T03:28:24;100763.63;;;19.22;94.91
6500;BME280;3283;52.330;9.772;2022-08-03T03:30:50;100759.25;;;19.21;95.30
6500;BME280;3283;52.330;9.772;2022-08-03T03:33:16;100766.53;;;19.17;95.36
6500;BME280;3283;52.330;9.772;2022-08-03T03:35:42;100771.00;;;19.17;95.41
6500;BME280;3283;52.330;9.772;2022-08-03T03:38:10;100766.00;;;19.09;95.62
6500;BME280;3283;52.330;9.772;2022-08-03T03:40:36;100759.81;;;19.09;95.93
6500;BME280;3283;52.330;9.772;2022-08-03T03:43:02;100763.91;;;19.16;95.70
6500;BME280;3283;52.330;9.772;2022-08-03T03:45:28;100766.66;;;19.14;95.20
6500;BME280;3283;52.330;9.772;2022-08-03T03:47:55;100766.81;;;19.11;95.54
6500;BME280;3283;52.330;9.772;2022-08-03T03:50:21;100763.34;;;19.09;95.72
6500;BME280;3283;52.330;9.772;2022-08-03T03:52:48;100759.75;;;19.10;96.18
6500;BME280;3283;52.330;9.772;2022-08-03T03:55:17;100760.47;;;19.14;95.93
6500;BME280;3283;52.330;9.772;2022-08-03T03:57:43;100764.84;;;19.15;96.25
6500;BME280;3283;52.330;9.772;2022-08-03T04:00:09;100764.06;;;19.13;96.31
6500;BME280;3283;52.330;9.772;2022-08-03T04:02:35;100761.47;;;19.11;95.45
6500;BME280;3283;52.330;9.772;2022-08-03T04:05:00;100757.78;;;19.14;95.12
6500;BME280;3283;52.330;9.772;2022-08-03T04:07:55;100754.78;;;19.21;95.30
6500;BME280;3283;52.330;9.772;2022-08-03T04:10:42;100764.13;;;19.30;94.25
6500;BME280;3283;52.330;9.772;2022-08-03T04:13:35;100765.16;;;19.28;94.37
6500;BME280;3283;52.330;9.772;2022-08-03T04:16:03;100756.28;;;19.27;94.35
6500;BME280;3283;52.330;9.772;2022-08-03T04:18:31;100756.50;;;19.23;95.05
6500;BME280;3283;52.330;9.772;2022-08-03T04:21:03;100760.75;;;19.27;94.67
6500;BME280;3283;52.330;9.772;2022-08-03T04:23:33;100765.00;;;19.31;94.11
6500;BME280;3283;52.330;9.772;2022-08-03T04:26:02;100769.34;;;19.33;93.96
6500;BME280;3283;52.330;9.772;2022-08-03T04:28:29;100765.91;;;19.31;93.60
6500;BME280;3283;52.330;9.772;2022-08-03T04:30:58;100773.09;;;19.29;94.07
6500;BME280;3283;52.330;9.772;2022-08-03T04:33:25;100779.16;;;19.33;93.77
6500;BME280;3283;52.330;9.772;2022-08-03T04:35:54;100780.59;;;19.40;93.12
6500;BME280;3283;52.330;9.772;2022-08-03T04:38:23;100786.44;;;19.48;92.58
6500;BME280;3283;52.330;9.772;2022-08-03T04:40:49;100784.44;;;19.53;92.16
6500;BME280;3283;52.330;9.772;2022-08-03T04:43:17;100785.75;;;19.63;92.08
6500;BME280;3283;52.330;9.772;2022-08-03T04:45:45;100790.50;;;19.75;91.85
6500;BME280;3283;52.330;9.772;2022-08-03T04:48:13;100791.94;;;19.83;91.27
6500;BME280;3283;52.330;9.772;2022-08-03T04:50:40;100791.88;;;19.84;91.00
6500;BME280;3283;52.330;9.772;2022-08-03T04:53:06;100790.84;;;19.87;90.92
6500;BME280;3283;52.330;9.772;2022-08-03T04:55:33;100795.88;;;19.93;90.33
6500;BME280;3283;52.330;9.772;2022-08-03T04:57:59;100792.84;;;20.00;89.87
6500;BME280;3283;52.330;9.772;2022-08-03T05:00:26;100793.25;;;20.10;89.42
6500;BME280;3283;52.330;9.772;2022-08-03T05:02:52;100790.91;;;20.21;88.13
6500;BME280;3283;52.330;9.772;2022-08-03T05:05:21;100789.59;;;20.30;87.66
6500;BME280;3283;52.330;9.772;2022-08-03T05:07:47;100801.47;;;20.42;87.38
6500;BME280;3283;52.330;9.772;2022-08-03T05:10:13;100798.78;;;20.42;87.17
6500;BME280;3283;52.330;9.772;2022-08-03T05:12:39;100791.72;;;20.41;87.51
6500;BME280;3283;52.330;9.772;2022-08-03T05:15:05;100795.06;;;20.46;87.12
6500;BME280;3283;52.330;9.772;2022-08-03T05:17:31;100789.41;;;20.52;87.40
6500;BME280;3283;52.330;9.772;2022-08-03T05:19:58;100794.34;;;20.60;86.95
6500;BME280;3283;52.330;9.772;2022-08-03T05:22:24;100793.00;;;20.68;86.52
6500;BME280;3283;52.330;9.772;2022-08-03T05:24:49;100794.88;;;20.83;86.14
6500;BME280;3283;52.330;9.772;2022-08-03T05:27:15;100789.50;;;21.01;85.36
6500;BME280;3283;52.330;9.772;2022-08-03T05:29:44;100783.56;;;21.11;84.86
6500;BME280;3283;52.330;9.772;2022-08-03T05:32:10;100782.03;;;21.23;84.55
6500;BME280;3283;52.330;9.772;2022-08-03T05:34:35;100795.56;;;21.37;84.03
6500;BME280;3283;52.330;9.772;2022-08-03T05:37:01;100785.97;;;21.49;83.99
6500;BME280;3283;52.330;9.772;2022-08-03T05:39:26;100789.97;;;21.58;83.79
6500;BME280;3283;52.330;9.772;2022-08-03T05:41:51;100787.88;;;21.63;83.79
6500;BME280;3283;52.330;9.772;2022-08-03T05:44:17;100779.94;;;21.77;83.60
6500;BME280;3283;52.330;9.772;2022-08-03T05:46:43;100783.06;;;21.85;83.65
6500;BME280;3283;52.330;9.772;2022-08-03T05:49:08;100787.28;;;21.89;83.19
6500;BME280;3283;52.330;9.772;2022-08-03T05:51:33;100774.91;;;22.03;82.89
6500;BME280;3283;52.330;9.772;2022-08-03T05:53:59;100776.47;;;22.07;82.10
6500;BME280;3283;52.330;9.772;2022-08-03T05:56:25;100779.28;;;22.19;81.39
6500;BME280;3283;52.330;9.772;2022-08-03T05:58:51;100782.47;;;22.26;82.04
6500;BME280;3283;52.330;9.772;2022-08-03T06:01:16;100782.53;;;22.40;81.38
6500;BME280;3283;52.330;9.772;2022-08-03T06:03:44;100788.13;;;22.52;81.16
6500;BME280;3283;52.330;9.772;2022-08-03T06:06:10;100780.88;;;22.68;80.86
6500;BME280;3283;52.330;9.772;2022-08-03T06:08:36;100780.13;;;22.80;80.50
6500;BME280;3283;52.330;9.772;2022-08-03T06:11:02;100775.09;;;22.90;79.55
6500;BME280;3283;52.330;9.772;2022-08-03T06:13:27;100780.41;;;23.06;79.27
6500;BME280;3283;52.330;9.772;2022-08-03T06:15:53;100774.22;;;23.03;78.49
6500;BME280;3283;52.330;9.772;2022-08-03T06:18:19;100776.25;;;23.00;78.16
6500;BME280;3283;52.330;9.772;2022-08-03T06:20:44;100777.88;;;23.17;77.95
6500;BME280;3283;52.330;9.772;2022-08-03T06:23:09;100775.06;;;23.33;78.01
6500;BME280;3283;52.330;9.772;2022-08-03T06:25:35;100781.72;;;23.41;76.23
6500;BME280;3283;52.330;9.772;2022-08-03T06:28:00;100781.97;;;23.51;76.86
6500;BME280;3283;52.330;9.772;2022-08-03T06:30:26;100781.88;;;23.67;75.82
6500;BME280;3283;52.330;9.772;2022-08-03T06:32:51;100780.00;;;23.81;74.81
6500;BME280;3283;52.330;9.772;2022-08-03T06:35:16;100785.16;;;23.99;74.60
6500;BME280;3283;52.330;9.772;2022-08-03T06:37:47;100786.31;;;24.22;73.36
6500;BME280;3283;52.330;9.772;2022-08-03T06:40:17;100791.00;;;24.45;72.42
6500;BME280;3283;52.330;9.772;2022-08-03T06:42:44;100791.72;;;24.61;71.37
6500;BME280;3283;52.330;9.772;2022-08-03T06:45:10;100793.00;;;24.69;71.48
6500;BME280;3283;52.330;9.772;2022-08-03T06:47:37;100787.66;;;24.81;70.19
6500;BME280;3283;52.330;9.772;2022-08-03T06:50:04;100800.44;;;24.90;70.03
6500;BME280;3283;52.330;9.772;2022-08-03T06:52:30;100803.81;;;24.81;69.55
6500;BME280;3283;52.330;9.772;2022-08-03T06:54:56;100804.09;;;24.77;70.08
6500;BME280;3283;52.330;9.772;2022-08-03T06:57:22;100803.25;;;24.89;69.49
6500;BME280;3283;52.330;9.772;2022-08-03T06:59:47;100802.28;;;24.90;70.74
6500;BME280;3283;52.330;9.772;2022-08-03T07:02:13;100807.44;;;24.93;69.96
6500;BME280;3283;52.330;9.772;2022-08-03T07:04:39;100808.97;;;24.97;70.07
6500;BME280;3283;52.330;9.772;2022-08-03T07:07:04;100808.63;;;25.02;70.36
6500;BME280;3283;52.330;9.772;2022-08-03T07:09:30;100807.50;;;25.18;70.45
6500;BME280;3283;52.330;9.772;2022-08-03T07:11:56;100807.25;;;25.34;69.77
6500;BME280;3283;52.330;9.772;2022-08-03T07:14:21;100807.56;;;25.42;68.83
6500;BME280;3283;52.330;9.772;2022-08-03T07:16:47;100813.25;;;25.51;68.90
6500;BME280;3283;52.330;9.772;2022-08-03T07:19:12;100809.56;;;25.77;68.73
6500;BME280;3283;52.330;9.772;2022-08-03T07:21:38;100810.34;;;26.03;68.34
6500;BME280;3283;52.330;9.772;2022-08-03T07:24:04;100802.53;;;26.11;67.42
6500;BME280;3283;52.330;9.772;2022-08-03T07:26:29;100810.38;;;26.14;67.15
6500;BME280;3283;52.330;9.772;2022-08-03T07:28:55;100811.88;;;25.94;67.35
6500;BME280;3283;52.330;9.772;2022-08-03T07:31:20;100812.59;;;26.09;67.41
6500;BME280;3283;52.330;9.772;2022-08-03T07:33:45;100811.28;;;26.26;67.64
6500;BME280;3283;52.330;9.772;2022-08-03T07:36:11;100808.31;;;26.42;66.90
6500;BME280;3283;52.330;9.772;2022-08-03T07:38:36;100808.66;;;26.61;65.58
6500;BME280;3283;52.330;9.772;2022-08-03T07:41:02;100812.72;;;26.67;65.66
6500;BME280;3283;52.330;9.772;2022-08-03T07:43:28;100806.28;;;27.03;66.29
6500;BME280;3283;52.330;9.772;2022-08-03T07:45:54;100812.47;;;27.16;65.01
6500;BME280;3283;52.330;9.772;2022-08-03T07:48:19;100813.69;;;27.12;64.83
6500;BME280;3283;52.330;9.772;2022-08-03T07:50:45;100812.00;;;27.22;65.41
6500;BME280;3283;52.330;9.772;2022-08-03T07:53:11;100808.56;;;27.43;65.03
6500;BME280;3283;52.330;9.772;2022-08-03T07:55:36;100805.81;;;27.76;63.98
6500;BME280;3283;52.330;9.772;2022-08-03T07:58:06;100801.25;;;27.77;63.93
6500;BME280;3283;52.330;9.772;2022-08-03T08:00:33;100809.38;;;27.65;64.28
6500;BME280;3283;52.330;9.772;2022-08-03T08:02:59;100811.72;;;27.81;64.14
6500;BME280;3283;52.330;9.772;2022-08-03T08:05:25;100808.28;;;27.79;64.08
6500;BME280;3283;52.330;9.772;2022-08-03T08:07:52;100811.19;;;27.99;63.73
6500;BME280;3283;52.330;9.772;2022-08-03T08:10:18;100809.78;;;28.15;63.60
6500;BME280;3283;52.330;9.772;2022-08-03T08:12:43;100808.28;;;28.34;63.27
6500;BME280;3283;52.330;9.772;2022-08-03T08:15:09;100798.91;;;28.38;61.67
6500;BME280;3283;52.330;9.772;2022-08-03T08:17:42;100799.09;;;28.46;62.10
6500;BME280;3283;52.330;9.772;2022-08-03T08:20:10;100801.03;;;28.34;61.87
6500;BME280;3283;52.330;9.772;2022-08-03T08:22:35;100803.22;;;28.29;61.87
6500;BME280;3283;52.330;9.772;2022-08-03T08:25:01;100800.03;;;28.35;62.71
6500;BME280;3283;52.330;9.772;2022-08-03T08:27:26;100790.94;;;28.57;62.09
6500;BME280;3283;52.330;9.772;2022-08-03T08:29:51;100800.44;;;28.72;62.30
6500;BME280;3283;52.330;9.772;2022-08-03T08:32:17;100795.06;;;28.82;62.03
6500;BME280;3283;52.330;9.772;2022-08-03T08:34:43;100798.38;;;28.97;61.13
6500;BME280;3283;52.330;9.772;2022-08-03T08:37:09;100797.06;;;29.01;60.69
6500;BME280;3283;52.330;9.772;2022-08-03T08:39:34;100791.06;;;29.18;60.28
6500;BME280;3283;52.330;9.772;2022-08-03T08:42:00;100801.69;;;29.41;60.18
6500;BME280;3283;52.330;9.772;2022-08-03T08:44:25;100784.94;;;29.26;59.46
6500;BME280;3283;52.330;9.772;2022-08-03T08:46:52;100794.34;;;29.22;59.02
6500;BME280;3283;52.330;9.772;2022-08-03T08:49:22;100791.63;;;29.22;59.15
6500;BME280;3283;52.330;9.772;2022-08-03T08:51:50;100793.09;;;29.36;59.20
6500;BME280;3283;52.330;9.772;2022-08-03T08:54:20;100797.19;;;29.51;59.17
6500;BME280;3283;52.330;9.772;2022-08-03T08:56:49;100794.13;;;29.44;58.01
6500;BME280;3283;52.330;9.772;2022-08-03T08:59:16;100799.56;;;29.44;57.45
6500;BME280;3283;52.330;9.772;2022-08-03T09:01:41;100805.09;;;29.64;58.00
6500;BME280;3283;52.330;9.772;2022-08-03T09:04:07;100794.16;;;29.85;57.12
6500;BME280;3283;52.330;9.772;2022-08-03T09:06:34;100794.75;;;30.07;57.53
6500;BME280;3283;52.330;9.772;2022-08-03T09:08:59;100801.50;;;30.13;56.70
6500;BME280;3283;52.330;9.772;2022-08-03T09:11:25;100792.75;;;30.00;57.07
6500;BME280;3283;52.330;9.772;2022-08-03T09:13:50;100785.31;;;29.92;56.79
6500;BME280;3283;52.330;9.772;2022-08-03T09:16:18;100787.56;;;29.87;56.88
6500;BME280;3283;52.330;9.772;2022-08-03T09:18:49;100781.06;;;30.09;56.46
6500;BME280;3283;52.330;9.772;2022-08-03T09:21:26;100780.91;;;30.30;56.13
6500;BME280;3283;52.330;9.772;2022-08-03T09:23:55;100788.50;;;30.36;56.87
6500;BME280;3283;52.330;9.772;2022-08-03T09:28:46;100781.38;;;30.45;55.71
6500;BME280;3283;52.330;9.772;2022-08-03T09:31:18;100787.22;;;30.40;54.02
6500;BME280;3283;52.330;9.772;2022-08-03T09:33:47;100790.22;;;30.66;54.62
6500;BME280;3283;52.330;9.772;2022-08-03T09:36:39;100777.91;;;30.72;54.48
6500;BME280;3283;52.330;9.772;2022-08-03T09:39:07;100785.03;;;30.63;55.01
6500;BME280;3283;52.330;9.772;2022-08-03T09:41:36;100791.34;;;30.44;54.14
6500;BME280;3283;52.330;9.772;2022-08-03T09:44:02;100799.63;;;30.04;54.86
6500;BME280;3283;52.330;9.772;2022-08-03T09:46:28;100794.75;;;30.07;55.19
6500;BME280;3283;52.330;9.772;2022-08-03T09:49:11;100786.34;;;30.30;54.62
6500;BME280;3283;52.330;9.772;2022-08-03T09:51:39;100788.22;;;30.39;54.13
6500;BME280;3283;52.330;9.772;2022-08-03T09:54:05;100792.78;;;30.29;55.27
6500;BME280;3283;52.330;9.772;2022-08-03T09:59:03;100788.22;;;30.49;53.18
6500;BME280;3283;52.330;9.772;2022-08-03T10:01:33;100781.50;;;30.33;53.77
6500;BME280;3283;52.330;9.772;2022-08-03T10:04:01;100779.94;;;30.41;54.37
6500;BME280;3283;52.330;9.772;2022-08-03T10:06:27;100781.78;;;30.50;54.18
6500;BME280;3283;52.330;9.772;2022-08-03T10:09:14;100777.63;;;30.75;53.25
6500;BME280;3283;52.330;9.772;2022-08-03T10:11:41;100772.75;;;30.78;52.63
6500;BME280;3283;52.330;9.772;2022-08-03T10:14:11;100775.03;;;30.63;53.04
6500;BME280;3283;52.330;9.772;2022-08-03T10:16:44;100777.34;;;30.68;53.18
6500;BME280;3283;52.330;9.772;2022-08-03T10:19:09;100777.47;;;30.76;53.27
6500;BME280;3283;52.330;9.772;2022-08-03T10:21:37;100777.59;;;30.65;54.13
6500;BME280;3283;52.330;9.772;2022-08-03T10:24:06;100771.31;;;30.84;53.48
6500;BME280;3283;52.330;9.772;2022-08-03T10:26:34;100766.59;;;30.76;53.59
6500;BME280;3283;52.330;9.772;2022-08-03T10:29:03;100768.03;;;30.51;53.64
6500;BME280;3283;52.330;9.772;2022-08-03T10:31:38;100765.03;;;30.64;54.20
6500;BME280;3283;52.330;9.772;2022-08-03T10:34:10;100764.16;;;30.83;54.14
6500;BME280;3283;52.330;9.772;2022-08-03T10:36:39;100760.38;;;30.94;52.88
6500;BME280;3283;52.330;9.772;2022-08-03T10:39:05;100754.91;;;31.23;52.96
6500;BME280;3283;52.330;9.772;2022-08-03T10:41:33;100750.94;;;30.98;52.31
6500;BME280;3283;52.330;9.772;2022-08-03T10:44:12;100759.59;;;31.21;52.75
6500;BME280;3283;52.330;9.772;2022-08-03T10:46:40;100753.44;;;31.18;52.27
6500;BME280;3283;52.330;9.772;2022-08-03T10:49:07;100744.97;;;31.22;52.36
6500;BME280;3283;52.330;9.772;2022-08-03T10:51:36;100744.28;;;31.20;52.41
6500;BME280;3283;52.330;9.772;2022-08-03T10:54:02;100748.84;;;31.29;52.20
6500;BME280;3283;52.330;9.772;2022-08-03T10:59:16;100752.72;;;31.54;52.57
6500;BME280;3283;52.330;9.772;2022-08-03T11:01:50;100743.28;;;31.76;51.50
6500;BME280;3283;52.330;9.772;2022-08-03T11:04:17;100740.19;;;32.06;51.54
6500;BME280;3283;52.330;9.772;2022-08-03T11:06:44;100741.00;;;32.16;52.01
6500;BME280;3283;52.330;9.772;2022-08-03T11:11:40;100732.88;;;32.24;51.30
6500;BME280;3283;52.330;9.772;2022-08-03T11:14:14;100740.19;;;32.24;52.11
6500;BME280;3283;52.330;9.772;2022-08-03T11:16:44;100740.13;;;32.34;51.65
6500;BME280;3283;52.330;9.772;2022-08-03T11:19:15;100734.97;;;32.48;51.44
6500;BME280;3283;52.330;9.772;2022-08-03T11:30:06;100720.38;;;31.96;51.26
6500;BME280;3283;52.330;9.772;2022-08-03T11:35:10;100720.94;;;32.35;50.65
6500;BME280;3283;52.330;9.772;2022-08-03T11:46:04;100734.13;;;32.12;51.03
6500;BME280;3283;52.330;9.772;2022-08-03T11:51:02;100723.56;;;31.91;50.64
6500;BME280;3283;52.330;9.772;2022-08-03T11:53:28;100731.38;;;31.77;50.76
6500;BME280;3283;52.330;9.772;2022-08-03T11:55:59;100723.47;;;32.19;51.16
6500;BME280;3283;52.330;9.772;2022-08-03T11:58:25;100722.19;;;32.49;50.06
6500;BME280;3283;52.330;9.772;2022-08-03T12:00:51;100715.38;;;32.71;49.08
6500;BME280;3283;52.330;9.772;2022-08-03T12:03:18;100712.78;;;32.87;48.86
6500;BME280;3283;52.330;9.772;2022-08-03T12:05:51;100727.56;;;32.85;49.84
6500;BME280;3283;52.330;9.772;2022-08-03T12:08:39;100716.44;;;33.04;50.13
6500;BME280;3283;52.330;9.772;2022-08-03T12:11:05;100724.75;;;33.28;49.35
6500;BME280;3283;52.330;9.772;2022-08-03T12:16:06;100709.97;;;33.05;49.38
6500;BME280;3283;52.330;9.772;2022-08-03T12:18:32;100700.91;;;33.04;48.86
6500;BME280;3283;52.330;9.772;2022-08-03T12:21:07;100710.03;;;33.13;48.61
6500;BME280;3283;52.330;9.772;2022-08-03T12:23:33;100709.63;;;33.00;48.75
6500;BME280;3283;52.330;9.772;2022-08-03T12:26:07;100711.72;;;33.14;48.25
6500;BME280;3283;52.330;9.772;2022-08-03T12:28:33;100704.69;;;32.77;48.15
6500;BME280;3283;52.330;9.772;2022-08-03T12:31:04;100712.66;;;32.97;49.34
6500;BME280;3283;52.330;9.772;2022-08-03T12:33:31;100707.75;;;33.00;49.57
6500;BME280;3283;52.330;9.772;2022-08-03T12:36:06;100707.16;;;32.89;49.25
6500;BME280;3283;52.330;9.772;2022-08-03T12:38:34;100704.41;;;32.63;49.38
6500;BME280;3283;52.330;9.772;2022-08-03T12:41:02;100699.97;;;32.62;49.59
6500;BME280;3283;52.330;9.772;2022-08-03T12:43:28;100702.78;;;32.44;50.35
6500;BME280;3283;52.330;9.772;2022-08-03T12:46:13;100696.34;;;32.09;49.63
6500;BME280;3283;52.330;9.772;2022-08-03T12:51:28;100699.91;;;32.10;51.03
6500;BME280;3283;52.330;9.772;2022-08-03T12:53:54;100693.91;;;32.24;52.20
6500;BME280;3283;52.330;9.772;2022-08-03T12:56:19;100700.31;;;32.15;51.23
6500;BME280;3283;52.330;9.772;2022-08-03T12:58:45;100700.22;;;31.89;51.03
6500;BME280;3283;52.330;9.772;2022-08-03T13:01:12;100697.72;;;31.78;51.52
6500;BME280;3283;52.330;9.772;2022-08-03T13:03:39;100699.41;;;31.61;51.78
6500;BME280;3283;52.330;9.772;2022-08-03T13:06:10;100706.88;;;31.77;51.47
6500;BME280;3283;52.330;9.772;2022-08-03T13:08:37;100691.84;;;32.00;51.54
6500;BME280;3283;52.330;9.772;2022-08-03T13:13:43;100693.16;;;32.58;50.09
6500;BME280;3283;52.330;9.772;2022-08-03T13:16:09;100691.84;;;32.70;50.33
6500;BME280;3283;52.330;9.772;2022-08-03T13:18:35;100695.50;;;32.78;49.23
6500;BME280;3283;52.330;9.772;2022-08-03T13:21:00;100689.78;;;32.90;48.84
6500;BME280;3283;52.330;9.772;2022-08-03T13:23:26;100683.19;;;32.74;49.07
6500;BME280;3283;52.330;9.772;2022-08-03T13:25:51;100677.63;;;32.50;49.71
6500;BME280;3283;52.330;9.772;2022-08-03T13:28:17;100676.41;;;31.91;49.58
6500;BME280;3283;52.330;9.772;2022-08-03T13:30:42;100677.75;;;31.87;50.97
6500;BME280;3283;52.330;9.772;2022-08-03T13:33:08;100673.19;;;32.13;50.46
6500;BME280;3283;52.330;9.772;2022-08-03T13:35:33;100669.78;;;32.29;49.64
6500;BME280;3283;52.330;9.772;2022-08-03T13:37:58;100672.63;;;32.45;49.99
6500;BME280;3283;52.330;9.772;2022-08-03T13:40:24;100671.44;;;32.74;48.84
6500;BME280;3283;52.330;9.772;2022-08-03T13:42:49;100667.53;;;32.76;48.63
6500;BME280;3283;52.330;9.772;2022-08-03T13:45:15;100666.00;;;32.74;48.64
6500;BME280;3283;52.330;9.772;2022-08-03T13:47:40;100665.41;;;32.62;48.89
6500;BME280;3283;52.330;9.772;2022-08-03T13:50:06;100661.88;;;32.70;49.51
6500;BME280;3283;52.330;9.772;2022-08-03T13:52:33;100658.41;;;32.60;48.32
6500;BME280;3283;52.330;9.772;2022-08-03T13:55:00;100655.22;;;32.64;48.32
6500;BME280;3283;52.330;9.772;2022-08-03T13:57:26;100654.47;;;32.54;48.05